createdAt,value
2018-04-12T00:01:59.680Z,17.70
2018-04-12T00:04:26.078Z,15.37
2018-04-12T00:06:52.325Z,15.97
2018-04-12T00:09:19.330Z,14.50
2018-04-12T00:11:45.576Z,17.83
2018-04-12T00:14:11.864Z,13.43
2018-04-12T00:16:38.087Z,16.00
2018-04-12T00:19:05.113Z,15.80
2018-04-12T00:21:31.359Z,14.57
2018-04-12T00:23:57.594Z,18.23
2018-04-12T00:26:23.821Z,16.77
2018-04-12T00:28:50.124Z,19.10
2018-04-12T00:31:16.356Z,22.50
2018-04-12T00:33:42.593Z,21.97
2018-04-12T00:36:09.561Z,19.47
2018-04-12T00:38:35.790Z,17.43
2018-04-12T00:41:02.827Z,18.97
2018-04-12T00:43:29.067Z,24.87
2018-04-12T00:45:55.346Z,20.90
2018-04-12T00:48:21.620Z,28.03
2018-04-12T00:50:47.890Z,24.10
2018-04-12T00:53:20.125Z,20.70
2018-04-12T00:55:47.090Z,36.67
2018-04-12T00:58:13.336Z,22.20
2018-04-12T01:00:39.627Z,22.77
2018-04-12T01:03:05.850Z,30.00
2018-04-12T01:05:32.096Z,24.00
2018-04-12T01:07:58.336Z,24.00
2018-04-12T01:10:24.602Z,22.07
2018-04-12T01:12:50.863Z,26.63
2018-04-12T01:15:17.094Z,27.70
2018-04-12T01:17:43.311Z,23.10
2018-04-12T01:20:09.545Z,27.23
2018-04-12T01:22:35.839Z,24.70
2018-04-12T01:25:02.118Z,30.53
2018-04-12T01:27:29.098Z,26.60
2018-04-12T01:29:55.326Z,32.43
2018-04-12T01:32:21.704Z,30.00
2018-04-12T01:34:47.995Z,34.80
2018-04-12T01:37:14.255Z,32.23
2018-04-12T01:39:40.478Z,30.40
2018-04-12T01:42:06.738Z,38.50
2018-04-12T01:44:32.984Z,39.90
2018-04-12T01:46:59.955Z,38.47
2018-04-12T01:49:26.159Z,43.93
2018-04-12T01:51:52.514Z,35.70
2018-04-12T01:54:19.623Z,41.57
2018-04-12T01:56:45.958Z,44.90
2018-04-12T01:59:12.182Z,44.77
2018-04-12T02:01:38.569Z,42.13
2018-04-12T02:04:04.835Z,45.90
2018-04-12T02:06:31.101Z,49.53
2018-04-12T02:08:57.367Z,56.10
2018-04-12T02:11:23.716Z,59.20
2018-04-12T02:13:50.011Z,51.87
2018-04-12T02:16:16.301Z,54.53
2018-04-12T02:18:42.655Z,61.10
2018-04-12T02:21:08.903Z,60.67
2018-04-12T02:23:35.145Z,67.10
2018-04-12T02:26:01.399Z,68.07
2018-04-12T02:28:27.670Z,65.47
2018-04-12T02:30:53.904Z,65.93
2018-04-12T02:33:20.914Z,71.23
2018-04-12T02:35:47.177Z,76.10
2018-04-12T02:38:13.571Z,74.37
2018-04-12T02:40:39.795Z,77.23
2018-04-12T02:43:06.872Z,78.97
2018-04-12T02:45:33.092Z,74.77
2018-04-12T02:48:00.048Z,75.47
2018-04-12T02:50:26.297Z,72.50
2018-04-12T02:52:52.631Z,75.97
2018-04-12T02:55:19.679Z,77.70
2018-04-12T02:57:45.963Z,70.77
2018-04-12T03:00:12.305Z,76.13
2018-04-12T03:02:38.562Z,74.50
2018-04-12T03:05:04.816Z,73.07
2018-04-12T03:07:31.056Z,71.43
2018-04-12T03:09:57.320Z,76.17
2018-04-12T03:14:55.987Z,82.43
2018-04-12T03:17:23.018Z,74.27
2018-04-12T03:19:49.273Z,76.80
2018-04-12T03:22:16.283Z,73.10
2018-04-12T03:24:42.556Z,77.20
2018-04-12T03:27:08.807Z,73.30
2018-04-12T03:29:37.152Z,71.03
2018-04-12T03:32:03.496Z,78.33
2018-04-12T03:34:29.723Z,77.90
2018-04-12T03:36:55.948Z,78.30
2018-04-12T03:39:22.975Z,77.70
2018-04-12T03:41:49.219Z,76.10
2018-04-12T03:44:15.466Z,76.50
2018-04-12T03:46:41.700Z,72.90
2018-04-12T03:49:08.035Z,76.87
2018-04-12T03:51:34.331Z,86.03
2018-04-12T03:54:00.599Z,77.13
2018-04-12T03:56:26.856Z,77.73
2018-04-12T03:58:53.121Z,82.87
2018-04-12T04:01:19.414Z,79.80
2018-04-12T04:03:45.633Z,79.00
2018-04-12T04:06:11.887Z,78.10
2018-04-12T04:08:38.831Z,94.47
2018-04-12T04:11:05.849Z,84.43
2018-04-12T04:13:32.148Z,83.83
2018-04-12T04:16:10.629Z,82.03
2018-04-12T04:18:49.424Z,80.40
2018-04-12T04:21:15.720Z,82.83
2018-04-12T04:23:42.038Z,88.87
2018-04-12T04:26:08.504Z,79.17
2018-04-12T04:28:34.863Z,86.77
2018-04-12T04:31:01.175Z,82.90
2018-04-12T04:33:27.407Z,82.63
2018-04-12T04:35:53.606Z,87.97
2018-04-12T04:38:19.945Z,80.27
2018-04-12T04:40:46.887Z,88.33
2018-04-12T04:43:13.213Z,87.07
2018-04-12T04:45:39.473Z,85.23
2018-04-12T04:48:06.523Z,83.40
2018-04-12T04:50:32.760Z,81.10
2018-04-12T04:52:59.154Z,84.20
2018-04-12T04:55:25.395Z,88.17
2018-04-12T04:57:51.793Z,78.70
2018-04-12T05:00:18.029Z,86.63
2018-04-12T05:02:44.303Z,96.03
2018-04-12T05:05:10.587Z,82.80
2018-04-12T05:07:36.973Z,85.27
2018-04-12T05:10:03.250Z,88.30
2018-04-12T05:12:29.539Z,84.97
2018-04-12T05:14:55.804Z,88.60
2018-04-12T05:17:23.341Z,79.13
2018-04-12T05:22:48.679Z,88.23
2018-04-12T05:25:16.017Z,88.93
2018-04-12T05:27:42.352Z,91.90
2018-04-12T05:30:14.277Z,81.20
2018-04-12T05:32:40.561Z,91.63
2018-04-12T05:35:11.156Z,90.33
2018-04-12T05:37:39.611Z,93.50
2018-04-12T05:40:09.433Z,97.70
2018-04-12T05:42:35.958Z,84.13
2018-04-12T05:45:03.008Z,90.17
2018-04-12T05:47:29.290Z,85.03
2018-04-12T05:49:56.380Z,87.00
2018-04-12T05:52:23.943Z,92.03
2018-04-12T05:54:50.243Z,88.40
2018-04-12T05:57:16.573Z,91.87
2018-04-12T05:59:42.831Z,96.03
2018-04-12T06:02:09.156Z,90.63
2018-04-12T06:04:37.501Z,86.43
2018-04-12T06:07:03.922Z,93.37
2018-04-12T06:09:30.965Z,86.50
2018-04-12T06:11:57.275Z,79.40
2018-04-12T06:14:23.507Z,82.30
2018-04-12T06:16:49.794Z,90.07
2018-04-12T06:19:16.056Z,79.40
2018-04-12T06:21:43.328Z,85.20
2018-04-12T06:24:09.845Z,100.53
2018-04-12T06:26:36.411Z,82.77
2018-04-12T06:29:07.612Z,95.33
2018-04-12T06:31:36.922Z,86.77
2018-04-12T06:34:05.708Z,88.53
2018-04-12T06:36:31.984Z,84.67
2018-04-12T06:39:01.913Z,84.17
2018-04-12T06:41:32.381Z,93.80
2018-04-12T06:44:05.985Z,78.67
2018-04-12T06:46:32.562Z,84.03
2018-04-12T06:49:03.941Z,77.10
2018-04-12T06:51:31.489Z,71.77
2018-04-12T06:54:00.357Z,73.30
2018-04-12T06:56:36.165Z,78.00
2018-04-12T06:59:04.848Z,67.23
2018-04-12T07:01:36.145Z,72.23
2018-04-12T07:04:05.420Z,66.27
2018-04-12T07:06:35.576Z,64.37
2018-04-12T07:09:05.834Z,70.70
2018-04-12T07:11:34.188Z,72.93
2018-04-12T07:14:05.599Z,64.60
2018-04-12T07:16:32.752Z,67.43
2018-04-12T07:19:08.043Z,63.90
2018-04-12T07:21:35.511Z,69.43
2018-04-12T07:24:13.038Z,62.53
2018-04-12T07:26:41.139Z,58.13
2018-04-12T07:29:10.747Z,69.73
2018-04-12T07:31:40.875Z,70.10
2018-04-12T07:34:08.770Z,62.87
2018-04-12T07:36:41.111Z,71.07
2018-04-12T07:39:11.405Z,63.37
2018-04-12T07:41:39.354Z,65.90
2018-04-12T07:44:05.845Z,68.73
2018-04-12T07:46:33.772Z,54.17
2018-04-12T07:49:01.550Z,62.90
2018-04-12T07:51:28.600Z,55.23
2018-04-12T07:53:55.339Z,47.80
2018-04-12T07:56:21.784Z,53.60
2018-04-12T07:58:48.530Z,63.47
2018-04-12T08:01:14.844Z,55.27
2018-04-12T08:03:41.234Z,56.80
2018-04-12T08:06:07.575Z,54.37
2018-04-12T08:08:34.102Z,52.47
2018-04-12T08:11:01.212Z,43.53
2018-04-12T08:13:27.952Z,50.07
2018-04-12T08:15:55.061Z,43.83
2018-04-12T08:18:21.835Z,32.80
2018-04-12T08:20:49.261Z,43.30
2018-04-12T08:23:15.593Z,34.27
2018-04-12T08:25:41.986Z,34.63
2018-04-12T08:28:08.349Z,42.33
2018-04-12T08:30:34.587Z,37.10
2018-04-12T08:33:00.917Z,24.77
2018-04-12T08:35:27.273Z,19.70
2018-04-12T08:37:53.623Z,25.33
2018-04-12T08:40:20.077Z,26.73
2018-04-12T08:42:46.332Z,25.60
2018-04-12T08:45:12.779Z,15.70
2018-04-12T08:47:39.593Z,20.80
2018-04-12T08:50:11.593Z,12.90
2018-04-12T08:52:40.089Z,21.17
2018-04-12T08:55:08.279Z,6.50
2018-04-12T08:57:42.215Z,13.00
2018-04-12T09:03:13.148Z,18.00
2018-04-12T09:05:42.532Z,9.47
2018-04-12T09:08:13.893Z,23.47
2018-04-12T09:16:46.750Z,6.60
2018-04-12T09:19:13.124Z,15.23
2018-04-12T09:21:39.364Z,12.73
2018-04-12T09:24:05.701Z,12.00
2018-04-12T09:26:32.198Z,10.57
2018-04-12T09:28:58.458Z,18.43
2018-04-12T09:31:24.965Z,11.07
2018-04-12T09:33:51.387Z,12.63
2018-04-12T09:36:18.134Z,8.03
2018-04-12T09:38:44.419Z,14.37
2018-04-12T09:41:10.981Z,8.07
2018-04-12T09:43:37.275Z,15.07
2018-04-12T09:46:04.087Z,13.63
2018-04-12T09:48:30.535Z,8.10
2018-04-12T09:50:58.051Z,7.63
2018-04-12T09:53:24.578Z,9.57
2018-04-12T09:55:51.416Z,7.43
2018-04-12T09:58:18.872Z,18.77
2018-04-12T10:00:52.741Z,5.80
2018-04-12T10:05:58.997Z,8.47
2018-04-12T10:08:42.209Z,10.07
2018-04-12T10:11:09.809Z,8.07
2018-04-12T10:13:39.141Z,7.80
2018-04-12T10:16:05.987Z,7.93
2018-04-12T10:18:53.897Z,11.53
2018-04-12T10:21:27.430Z,27.17
2018-04-12T10:23:57.341Z,16.23
2018-04-12T10:26:23.626Z,16.17
2018-04-12T10:28:49.929Z,10.10
2018-04-12T10:31:17.019Z,8.77
2018-04-12T10:36:27.236Z,9.83
2018-04-12T10:38:54.978Z,6.60
2018-04-12T10:41:21.347Z,9.67
2018-04-12T10:43:49.150Z,9.80
2018-04-12T10:46:16.021Z,8.60
2018-04-12T10:48:59.954Z,7.83
2018-04-12T10:51:26.974Z,11.90
2018-04-12T10:53:53.427Z,7.93
2018-04-12T10:56:19.911Z,9.73
2018-04-12T10:58:46.241Z,10.03
2018-04-12T11:01:12.581Z,10.43
2018-04-12T11:03:38.968Z,10.53
2018-04-12T11:06:10.214Z,13.90
2018-04-12T11:08:36.475Z,8.70
2018-04-12T11:11:02.959Z,10.07
2018-04-12T11:13:29.314Z,13.03
2018-04-12T11:15:55.680Z,11.93
2018-04-12T11:18:22.524Z,12.57
2018-04-12T11:20:49.101Z,12.23
2018-04-12T11:23:16.769Z,8.00
2018-04-12T11:25:43.876Z,11.33
2018-04-12T11:28:10.197Z,16.13
2018-04-12T11:30:36.466Z,9.27
2018-04-12T11:33:04.115Z,15.40
2018-04-12T11:35:30.411Z,11.40
2018-04-12T11:38:08.026Z,12.03
2018-04-12T11:40:34.405Z,11.47
2018-04-12T11:43:00.707Z,16.53
2018-04-12T11:45:27.028Z,12.63
2018-04-12T11:47:53.279Z,11.77
2018-04-12T11:50:19.570Z,9.77
2018-04-12T11:52:45.983Z,20.43
2018-04-12T11:55:12.351Z,10.90
2018-04-12T11:57:38.623Z,17.83
2018-04-12T12:00:05.174Z,14.50
2018-04-12T12:02:31.784Z,13.97
2018-04-12T12:04:58.851Z,13.47
2018-04-12T12:07:25.360Z,17.00
2018-04-12T12:09:52.173Z,11.27
2018-04-12T12:12:18.582Z,16.57
2018-04-12T12:14:44.991Z,12.53
2018-04-12T12:17:12.016Z,25.17
2018-04-12T12:19:38.295Z,13.87
2018-04-12T12:22:04.724Z,17.30
2018-04-12T12:24:31.722Z,14.73
2018-04-12T12:26:59.052Z,16.27
2018-04-12T12:29:26.264Z,11.97
2018-04-12T12:31:53.322Z,13.20
2018-04-12T12:34:19.522Z,10.17
2018-04-12T12:36:46.497Z,13.07
2018-04-12T12:39:14.550Z,24.53
2018-04-12T12:41:41.727Z,14.20
2018-04-12T12:44:08.752Z,15.40
2018-04-12T12:46:38.207Z,17.23
2018-04-12T12:49:04.808Z,22.73
2018-04-12T12:51:31.715Z,22.50
2018-04-12T12:53:58.141Z,17.33
2018-04-12T12:56:25.635Z,19.90
2018-04-12T12:58:52.318Z,37.50
2018-04-12T13:01:19.010Z,16.43
2018-04-12T13:03:45.421Z,14.30
2018-04-12T13:06:12.207Z,17.27
2018-04-12T13:08:38.609Z,13.63
2018-04-12T13:11:06.271Z,22.30
2018-04-12T13:13:33.300Z,16.30
2018-04-12T13:16:00.606Z,14.63
2018-04-12T13:18:27.973Z,14.10
2018-04-12T13:20:54.488Z,15.10
2018-04-12T13:23:24.827Z,13.90
2018-04-12T13:25:51.269Z,14.33
2018-04-12T13:28:17.912Z,15.57
2018-04-12T13:30:44.333Z,19.77
2018-04-12T13:33:10.690Z,17.30
2018-04-12T13:35:39.619Z,17.73
2018-04-12T13:38:06.182Z,20.77
2018-04-12T13:40:33.102Z,16.30
2018-04-12T13:42:59.579Z,20.60
2018-04-12T13:45:27.915Z,18.43
2018-04-12T13:47:56.334Z,21.87
2018-04-12T13:50:22.777Z,16.67
2018-04-12T13:52:49.174Z,20.10
2018-04-12T13:55:15.608Z,26.17
2018-04-12T13:57:41.919Z,19.63
2018-04-12T14:00:08.420Z,19.00
2018-04-12T14:02:34.840Z,23.93
2018-04-12T14:05:01.202Z,14.50
2018-04-12T14:07:27.914Z,19.70
2018-04-12T14:09:54.364Z,10.57
2018-04-12T14:12:20.687Z,12.77
2018-04-12T14:14:47.256Z,7.13
2018-04-12T14:17:14.275Z,20.50
2018-04-12T14:19:41.944Z,7.33
2018-04-12T14:22:08.525Z,7.90
2018-04-12T14:24:34.946Z,14.70
2018-04-12T14:27:01.331Z,14.20
2018-04-12T14:29:27.723Z,7.77
2018-04-12T14:31:54.006Z,6.83
2018-04-12T14:34:20.828Z,11.30
2018-04-12T14:36:48.134Z,10.70
2018-04-12T14:39:15.176Z,16.93
2018-04-12T14:41:41.729Z,20.40
2018-04-12T14:44:08.093Z,8.73
2018-04-12T14:46:34.427Z,11.17
2018-04-12T14:49:00.750Z,5.30
2018-04-12T14:51:27.165Z,10.90
2018-04-12T14:53:54.872Z,17.50
2018-04-12T14:56:22.307Z,10.57
2018-04-12T14:58:50.421Z,16.80
2018-04-12T15:01:16.897Z,12.87
2018-04-12T15:03:43.245Z,8.23
2018-04-12T15:06:09.587Z,11.33
2018-04-12T15:08:35.874Z,7.73
2018-04-12T15:11:03.177Z,5.87
2018-04-12T15:16:04.224Z,12.57
2018-04-12T15:18:30.700Z,30.43
2018-04-12T15:20:59.801Z,9.53
2018-04-12T15:23:29.292Z,13.13
2018-04-12T15:26:01.351Z,9.03
2018-04-12T15:28:35.559Z,11.63
2018-04-12T15:31:05.835Z,10.43
2018-04-12T15:33:32.146Z,11.07
2018-04-12T15:35:58.771Z,9.43
2018-04-12T15:38:25.366Z,10.63
2018-04-12T15:40:51.735Z,11.80
2018-04-12T15:43:18.051Z,19.27
2018-04-12T15:45:44.438Z,27.57
2018-04-12T15:48:11.909Z,7.73
2018-04-12T15:50:38.604Z,12.80
2018-04-12T15:53:05.015Z,8.63
2018-04-12T15:55:31.389Z,13.63
2018-04-12T15:57:57.669Z,10.07
2018-04-12T16:00:24.386Z,7.37
2018-04-12T16:02:50.743Z,9.43
2018-04-12T16:05:17.036Z,5.83
2018-04-12T16:07:43.312Z,6.43
2018-04-12T16:10:10.292Z,6.53
2018-04-12T16:12:37.530Z,12.40
2018-04-12T16:15:03.948Z,6.13
2018-04-12T16:17:30.219Z,21.43
2018-04-12T16:19:56.574Z,5.63
2018-04-12T16:22:23.676Z,9.63
2018-04-12T16:24:51.407Z,21.43
2018-04-12T16:27:17.893Z,6.77
2018-04-12T16:29:46.256Z,8.40
2018-04-12T16:32:12.637Z,8.53
2018-04-12T16:34:40.616Z,20.90
2018-04-12T16:37:09.448Z,7.90
2018-04-12T16:39:35.823Z,27.50
2018-04-12T16:45:04.718Z,18.93
2018-04-12T16:47:31.219Z,16.97
2018-04-12T16:49:57.530Z,9.67
2018-04-12T16:52:24.398Z,11.13
2018-04-12T16:54:53.533Z,9.07
2018-04-12T16:57:40.323Z,17.23
2018-04-12T17:00:06.681Z,21.30
2018-04-12T17:02:33.796Z,26.40
2018-04-12T17:05:00.088Z,18.67
2018-04-12T17:07:26.544Z,72.23
2018-04-12T17:09:52.888Z,144.47
2018-04-12T17:12:22.636Z,17.83
2018-04-12T17:14:49.140Z,28.67
2018-04-12T17:17:15.485Z,20.90
2018-04-12T17:19:43.130Z,9.83
2018-04-12T17:22:09.735Z,13.63
2018-04-12T17:24:39.336Z,16.60
2018-04-12T17:27:06.384Z,38.87
2018-04-12T17:29:33.428Z,13.13
2018-04-12T17:32:03.090Z,20.53
2018-04-12T17:34:35.355Z,28.10
2018-04-12T17:37:03.751Z,17.60
2018-04-12T17:39:30.200Z,37.03
2018-04-12T17:44:28.934Z,22.13
2018-04-12T17:46:55.507Z,28.03
2018-04-12T17:49:32.136Z,11.60
2018-04-12T17:51:58.652Z,14.77
2018-04-12T17:54:26.271Z,13.87
2018-04-12T17:56:53.093Z,17.57
2018-04-12T18:01:55.421Z,16.20
2018-04-12T18:04:23.082Z,20.37
2018-04-12T18:06:50.455Z,22.73
2018-04-12T18:09:19.379Z,38.57
2018-04-12T18:11:48.325Z,19.60
2018-04-12T18:14:19.584Z,30.70
2018-04-12T18:16:47.527Z,37.60
2018-04-12T18:19:14.141Z,20.20
2018-04-12T18:21:40.570Z,12.80
2018-04-12T18:24:07.799Z,17.10
2018-04-12T18:26:35.363Z,34.90
2018-04-12T18:29:07.443Z,10.00
2018-04-12T18:31:51.465Z,34.00
2018-04-12T18:34:18.654Z,13.70
2018-04-12T18:36:44.935Z,12.87
2018-04-12T18:39:11.346Z,11.17
2018-04-12T18:41:37.663Z,11.47
2018-04-12T18:44:03.897Z,21.83
2018-04-12T18:46:31.183Z,21.13
2018-04-12T18:48:57.452Z,10.03
2018-04-12T18:51:23.779Z,21.80
2018-04-12T18:53:50.106Z,11.57
2018-04-12T18:56:16.923Z,11.90
2018-04-12T18:58:43.265Z,14.20
2018-04-12T19:01:09.587Z,24.17
2018-04-12T19:03:36.025Z,12.40
2018-04-12T19:06:06.499Z,11.53
2018-04-12T19:08:33.484Z,9.40
2018-04-12T19:11:05.243Z,14.97
2018-04-12T19:16:37.224Z,36.33
2018-04-12T19:19:03.781Z,11.73
2018-04-12T19:21:30.055Z,10.10
2018-04-12T19:23:56.325Z,14.47
2018-04-12T19:26:22.687Z,14.70
2018-04-12T19:28:48.905Z,13.37
2018-04-12T19:31:15.385Z,14.17
2018-04-12T19:33:41.830Z,12.27
2018-04-12T19:36:08.383Z,14.17
2018-04-12T19:38:34.686Z,10.60
2018-04-12T19:41:01.768Z,11.17
2018-04-12T19:43:28.022Z,58.80
2018-04-12T19:45:54.451Z,14.90
2018-04-12T19:48:20.672Z,10.10
2018-04-12T19:50:46.886Z,16.50
2018-04-12T19:53:13.143Z,17.10
2018-04-12T19:55:40.912Z,12.50
2018-04-12T19:58:07.818Z,11.10
2018-04-12T20:00:34.558Z,13.83
2018-04-12T20:03:02.633Z,9.43
2018-04-12T20:05:29.073Z,15.90
2018-04-12T20:08:08.000Z,11.23
2018-04-12T20:10:35.516Z,12.70
2018-04-12T20:13:22.781Z,28.27
2018-04-12T20:15:50.134Z,16.03
2018-04-12T20:18:21.856Z,16.43
2018-04-12T20:21:05.502Z,12.40
2018-04-12T20:23:38.580Z,12.60
2018-04-12T20:44:38.894Z,24.77
2018-04-12T20:50:08.606Z,20.60
2018-04-12T20:52:35.300Z,17.40
2018-04-12T20:55:01.929Z,16.33
2018-04-12T20:57:31.085Z,16.60
2018-04-12T20:59:58.565Z,14.87
2018-04-12T21:02:36.040Z,23.47
2018-04-12T21:05:06.188Z,21.13
2018-04-12T21:10:35.905Z,14.37
2018-04-12T21:13:05.980Z,19.87
2018-04-12T21:15:38.386Z,25.70
2018-04-12T21:18:06.626Z,26.43
2018-04-12T21:23:36.192Z,21.20
2018-04-12T21:26:05.743Z,25.33
2018-04-12T21:28:36.078Z,25.73
2018-04-12T21:31:08.433Z,19.60
2018-04-12T21:33:35.989Z,18.43
2018-04-12T21:36:08.331Z,17.90
2018-04-12T21:38:34.738Z,23.07
2018-04-12T21:41:02.150Z,15.83
2018-04-12T21:43:36.278Z,16.10
2018-04-12T21:46:06.693Z,16.97
2018-04-12T21:48:46.975Z,34.53
2018-04-12T21:51:13.328Z,16.30
2018-04-12T21:53:39.666Z,363.03
2018-04-12T21:56:05.931Z,17.80
2018-04-12T21:58:32.187Z,24.77
2018-04-12T22:00:58.383Z,26.47
2018-04-12T22:03:24.642Z,18.17
2018-04-12T22:05:50.856Z,43.07
2018-04-12T22:08:18.091Z,13.53
2018-04-12T22:10:47.984Z,20.70
2018-04-12T22:13:15.293Z,21.33
2018-04-12T22:15:41.573Z,20.10
2018-04-12T22:18:07.957Z,18.07
2018-04-12T22:20:34.313Z,19.63
2018-04-12T22:23:00.638Z,21.97
2018-04-12T22:25:26.998Z,18.27
2018-04-12T22:27:54.695Z,15.30
2018-04-12T22:30:23.034Z,16.30
2018-04-12T22:32:49.763Z,16.93
2018-04-12T22:35:16.590Z,15.37
2018-04-12T22:37:43.015Z,18.70
2018-04-12T22:40:10.027Z,20.93
2018-04-12T22:42:37.584Z,17.17
2018-04-12T22:45:06.181Z,25.63
2018-04-12T22:47:36.125Z,19.80
2018-04-12T22:50:05.673Z,28.83
2018-04-12T22:52:36.448Z,22.13
2018-04-12T22:55:05.891Z,15.37
2018-04-12T22:57:36.041Z,16.20
2018-04-12T23:00:05.632Z,15.90
2018-04-12T23:02:35.761Z,21.53
2018-04-12T23:05:05.948Z,24.90
2018-04-12T23:07:37.233Z,23.80
2018-04-12T23:10:05.568Z,16.03
2018-04-12T23:12:31.814Z,19.73
2018-04-12T23:17:37.077Z,16.87
2018-04-12T23:20:07.333Z,30.13
2018-04-12T23:22:36.281Z,24.60
2018-04-12T23:25:02.549Z,17.20
2018-04-12T23:27:36.164Z,18.00
2018-04-12T23:30:11.604Z,17.57
2018-04-12T23:32:38.252Z,23.90
2018-04-12T23:35:04.775Z,20.30
2018-04-12T23:37:36.343Z,22.43
2018-04-12T23:40:07.217Z,21.33
2018-04-12T23:42:35.793Z,20.73
2018-04-12T23:45:08.517Z,19.03
2018-04-12T23:47:36.280Z,23.53
2018-04-12T23:50:06.628Z,21.57
2018-04-12T23:52:36.954Z,16.87
2018-04-12T23:55:06.185Z,15.53
2018-04-12T23:57:35.689Z,17.97
